Terminal Aerodrome Forecast
Issued by NWS

Home | Current Version | Previous Version | Text Only | Print | Product List | Glossary On
Versions: 1 2 3 4 5 6 7 8 9 10 11 12 13
521
FTUS42 KMLB 291138
TAFLEE
TAF
KLEE 291138Z 2912/3012 07003KT P6SM FEW030
     FM291400 VRB04KT P6SM FEW040
     FM291800 VRB05KT P6SM SCT040 SCT070
     FM300100 00000KT P6SM SCT050 BKN250=

USA.gov is the U.S. government's official web portal to all federal, state and local government web resources and services.